sensor_id;sensor_type;location;lat;lon;timestamp;P1;durP1;ratioP1;P2;durP2;ratioP2
39218;SDS011;24934;52.752;6.964;2023-04-21T00:00:55;44.90;;;29.23;;
39218;SDS011;24934;52.752;6.964;2023-04-21T00:03:21;40.47;;;28.07;;
39218;SDS011;24934;52.752;6.964;2023-04-21T00:05:47;41.63;;;28.50;;
39218;SDS011;24934;52.752;6.964;2023-04-21T00:08:14;43.17;;;29.60;;
39218;SDS011;24934;52.752;6.964;2023-04-21T00:10:40;41.20;;;28.30;;
39218;SDS011;24934;52.752;6.964;2023-04-21T00:13:06;39.40;;;27.07;;
39218;SDS011;24934;52.752;6.964;2023-04-21T00:15:32;38.57;;;27.70;;
39218;SDS011;24934;52.752;6.964;2023-04-21T00:17:57;38.43;;;26.77;;
39218;SDS011;24934;52.752;6.964;2023-04-21T00:20:25;38.37;;;26.37;;
39218;SDS011;24934;52.752;6.964;2023-04-21T00:22:54;32.57;;;25.63;;
39218;SDS011;24934;52.752;6.964;2023-04-21T00:25:21;38.50;;;27.30;;
39218;SDS011;24934;52.752;6.964;2023-04-21T00:27:47;42.93;;;27.00;;
39218;SDS011;24934;52.752;6.964;2023-04-21T00:30:13;41.53;;;27.23;;
39218;SDS011;24934;52.752;6.964;2023-04-21T00:32:38;38.27;;;25.93;;
39218;SDS011;24934;52.752;6.964;2023-04-21T00:35:04;37.50;;;25.07;;
39218;SDS011;24934;52.752;6.964;2023-04-21T00:37:30;35.07;;;24.40;;
39218;SDS011;24934;52.752;6.964;2023-04-21T00:39:56;39.43;;;25.73;;
39218;SDS011;24934;52.752;6.964;2023-04-21T00:42:22;35.70;;;25.07;;
39218;SDS011;24934;52.752;6.964;2023-04-21T00:44:48;37.03;;;24.30;;
39218;SDS011;24934;52.752;6.964;2023-04-21T00:47:14;37.03;;;24.27;;
39218;SDS011;24934;52.752;6.964;2023-04-21T00:49:40;37.03;;;24.20;;
39218;SDS011;24934;52.752;6.964;2023-04-21T00:52:06;39.23;;;24.80;;
39218;SDS011;24934;52.752;6.964;2023-04-21T00:54:33;34.77;;;23.13;;
39218;SDS011;24934;52.752;6.964;2023-04-21T00:56:59;33.73;;;24.50;;
39218;SDS011;24934;52.752;6.964;2023-04-21T00:59:26;33.60;;;24.33;;
39218;SDS011;24934;52.752;6.964;2023-04-21T01:01:52;37.27;;;25.37;;
39218;SDS011;24934;52.752;6.964;2023-04-21T01:04:17;32.80;;;23.30;;
39218;SDS011;24934;52.752;6.964;2023-04-21T01:06:43;34.40;;;23.60;;
39218;SDS011;24934;52.752;6.964;2023-04-21T01:09:09;38.53;;;23.83;;
39218;SDS011;24934;52.752;6.964;2023-04-21T01:11:36;30.33;;;22.40;;
39218;SDS011;24934;52.752;6.964;2023-04-21T01:14:03;34.40;;;23.77;;
39218;SDS011;24934;52.752;6.964;2023-04-21T01:16:29;33.67;;;22.43;;
39218;SDS011;24934;52.752;6.964;2023-04-21T01:19:01;38.87;;;23.27;;
39218;SDS011;24934;52.752;6.964;2023-04-21T01:21:34;37.80;;;24.10;;
39218;SDS011;24934;52.752;6.964;2023-04-21T01:24:04;31.50;;;22.77;;
39218;SDS011;24934;52.752;6.964;2023-04-21T01:26:30;33.40;;;23.20;;
39218;SDS011;24934;52.752;6.964;2023-04-21T01:28:55;33.73;;;22.07;;
39218;SDS011;24934;52.752;6.964;2023-04-21T01:31:21;30.97;;;22.10;;
39218;SDS011;24934;52.752;6.964;2023-04-21T01:33:48;30.23;;;22.20;;
39218;SDS011;24934;52.752;6.964;2023-04-21T01:36:13;33.70;;;21.33;;
39218;SDS011;24934;52.752;6.964;2023-04-21T01:38:39;32.20;;;21.17;;
39218;SDS011;24934;52.752;6.964;2023-04-21T01:41:05;42.93;;;23.10;;
39218;SDS011;24934;52.752;6.964;2023-04-21T01:43:32;30.20;;;21.67;;
39218;SDS011;24934;52.752;6.964;2023-04-21T01:45:58;30.27;;;22.30;;
39218;SDS011;24934;52.752;6.964;2023-04-21T01:48:23;30.53;;;21.57;;
39218;SDS011;24934;52.752;6.964;2023-04-21T01:50:49;30.17;;;21.47;;
39218;SDS011;24934;52.752;6.964;2023-04-21T01:53:14;31.87;;;20.40;;
39218;SDS011;24934;52.752;6.964;2023-04-21T01:55:40;29.13;;;21.73;;
39218;SDS011;24934;52.752;6.964;2023-04-21T01:58:06;27.33;;;20.87;;
39218;SDS011;24934;52.752;6.964;2023-04-21T02:00:31;30.87;;;21.83;;
39218;SDS011;24934;52.752;6.964;2023-04-21T02:03:00;29.73;;;21.37;;
39218;SDS011;24934;52.752;6.964;2023-04-21T02:05:25;29.10;;;21.53;;
39218;SDS011;24934;52.752;6.964;2023-04-21T02:07:51;29.80;;;20.80;;
39218;SDS011;24934;52.752;6.964;2023-04-21T02:10:16;32.07;;;20.83;;
39218;SDS011;24934;52.752;6.964;2023-04-21T02:12:42;30.20;;;21.07;;
39218;SDS011;24934;52.752;6.964;2023-04-21T02:15:08;24.83;;;19.70;;
39218;SDS011;24934;52.752;6.964;2023-04-21T02:17:34;26.73;;;20.07;;
39218;SDS011;24934;52.752;6.964;2023-04-21T02:20:00;27.40;;;20.33;;
39218;SDS011;24934;52.752;6.964;2023-04-21T02:22:26;31.03;;;18.67;;
39218;SDS011;24934;52.752;6.964;2023-04-21T02:24:51;25.97;;;19.23;;
39218;SDS011;24934;52.752;6.964;2023-04-21T02:27:17;28.67;;;19.20;;
39218;SDS011;24934;52.752;6.964;2023-04-21T02:29:42;24.07;;;19.10;;
39218;SDS011;24934;52.752;6.964;2023-04-21T02:32:08;25.43;;;19.37;;
39218;SDS011;24934;52.752;6.964;2023-04-21T02:34:34;31.20;;;20.43;;
39218;SDS011;24934;52.752;6.964;2023-04-21T02:36:59;25.30;;;18.97;;
39218;SDS011;24934;52.752;6.964;2023-04-21T02:39:25;29.10;;;19.33;;
39218;SDS011;24934;52.752;6.964;2023-04-21T02:41:51;25.63;;;18.60;;
39218;SDS011;24934;52.752;6.964;2023-04-21T02:44:16;23.17;;;18.70;;
39218;SDS011;24934;52.752;6.964;2023-04-21T02:46:42;27.93;;;18.93;;
39218;SDS011;24934;52.752;6.964;2023-04-21T02:49:08;26.77;;;18.30;;
39218;SDS011;24934;52.752;6.964;2023-04-21T02:51:34;24.70;;;17.97;;
39218;SDS011;24934;52.752;6.964;2023-04-21T02:54:00;28.33;;;17.97;;
39218;SDS011;24934;52.752;6.964;2023-04-21T02:56:25;27.20;;;18.33;;
39218;SDS011;24934;52.752;6.964;2023-04-21T02:58:51;23.07;;;18.47;;
39218;SDS011;24934;52.752;6.964;2023-04-21T03:01:16;25.93;;;17.80;;
39218;SDS011;24934;52.752;6.964;2023-04-21T03:03:45;30.60;;;18.67;;
39218;SDS011;24934;52.752;6.964;2023-04-21T03:06:10;24.57;;;18.83;;
39218;SDS011;24934;52.752;6.964;2023-04-21T03:08:36;25.67;;;18.47;;
39218;SDS011;24934;52.752;6.964;2023-04-21T03:11:02;27.10;;;19.50;;
39218;SDS011;24934;52.752;6.964;2023-04-21T03:13:27;24.37;;;19.13;;
39218;SDS011;24934;52.752;6.964;2023-04-21T03:15:53;29.10;;;18.30;;
39218;SDS011;24934;52.752;6.964;2023-04-21T03:18:18;29.20;;;18.47;;
39218;SDS011;24934;52.752;6.964;2023-04-21T03:20:44;25.83;;;19.57;;
39218;SDS011;24934;52.752;6.964;2023-04-21T03:23:10;26.77;;;18.50;;
39218;SDS011;24934;52.752;6.964;2023-04-21T03:25:36;24.50;;;18.70;;
39218;SDS011;24934;52.752;6.964;2023-04-21T03:28:02;27.33;;;19.27;;
39218;SDS011;24934;52.752;6.964;2023-04-21T03:30:28;29.53;;;19.43;;
39218;SDS011;24934;52.752;6.964;2023-04-21T03:32:55;30.97;;;19.60;;
39218;SDS011;24934;52.752;6.964;2023-04-21T03:35:22;28.67;;;19.20;;
39218;SDS011;24934;52.752;6.964;2023-04-21T03:37:48;27.03;;;18.73;;
39218;SDS011;24934;52.752;6.964;2023-04-21T03:40:13;26.60;;;18.93;;
39218;SDS011;24934;52.752;6.964;2023-04-21T03:42:39;27.10;;;19.23;;
39218;SDS011;24934;52.752;6.964;2023-04-21T03:45:06;27.63;;;18.67;;
39218;SDS011;24934;52.752;6.964;2023-04-21T03:47:33;25.37;;;17.97;;
39218;SDS011;24934;52.752;6.964;2023-04-21T03:50:03;22.67;;;18.23;;
39218;SDS011;24934;52.752;6.964;2023-04-21T03:52:30;28.73;;;18.53;;
39218;SDS011;24934;52.752;6.964;2023-04-21T03:54:55;37.27;;;19.07;;
39218;SDS011;24934;52.752;6.964;2023-04-21T03:57:21;25.17;;;18.70;;
39218;SDS011;24934;52.752;6.964;2023-04-21T03:59:47;27.33;;;18.90;;
39218;SDS011;24934;52.752;6.964;2023-04-21T04:02:12;28.17;;;18.37;;
39218;SDS011;24934;52.752;6.964;2023-04-21T04:04:38;24.20;;;17.70;;
39218;SDS011;24934;52.752;6.964;2023-04-21T04:07:04;26.43;;;17.90;;
39218;SDS011;24934;52.752;6.964;2023-04-21T04:09:31;26.00;;;18.60;;
39218;SDS011;24934;52.752;6.964;2023-04-21T04:11:57;25.40;;;18.37;;
39218;SDS011;24934;52.752;6.964;2023-04-21T04:14:22;26.93;;;18.60;;
39218;SDS011;24934;52.752;6.964;2023-04-21T04:16:48;30.93;;;18.83;;
39218;SDS011;24934;52.752;6.964;2023-04-21T04:19:16;24.20;;;19.13;;
39218;SDS011;24934;52.752;6.964;2023-04-21T04:21:41;27.43;;;19.33;;
39218;SDS011;24934;52.752;6.964;2023-04-21T04:24:07;27.03;;;19.37;;
39218;SDS011;24934;52.752;6.964;2023-04-21T04:26:35;25.37;;;18.80;;
39218;SDS011;24934;52.752;6.964;2023-04-21T04:29:02;26.03;;;19.00;;
39218;SDS011;24934;52.752;6.964;2023-04-21T04:31:30;25.53;;;19.40;;
39218;SDS011;24934;52.752;6.964;2023-04-21T04:33:56;24.20;;;19.27;;
39218;SDS011;24934;52.752;6.964;2023-04-21T04:36:22;27.90;;;19.70;;
39218;SDS011;24934;52.752;6.964;2023-04-21T04:38:48;28.13;;;18.40;;
39218;SDS011;24934;52.752;6.964;2023-04-21T04:41:15;23.20;;;18.60;;
39218;SDS011;24934;52.752;6.964;2023-04-21T04:43:41;30.40;;;19.17;;
39218;SDS011;24934;52.752;6.964;2023-04-21T04:46:07;26.27;;;19.20;;
39218;SDS011;24934;52.752;6.964;2023-04-21T04:48:36;25.63;;;19.10;;
39218;SDS011;24934;52.752;6.964;2023-04-21T04:51:02;24.20;;;19.10;;
39218;SDS011;24934;52.752;6.964;2023-04-21T04:53:28;25.60;;;18.67;;
39218;SDS011;24934;52.752;6.964;2023-04-21T04:55:54;22.27;;;17.93;;
39218;SDS011;24934;52.752;6.964;2023-04-21T04:58:22;25.17;;;18.10;;
39218;SDS011;24934;52.752;6.964;2023-04-21T05:00:48;22.33;;;17.43;;
39218;SDS011;24934;52.752;6.964;2023-04-21T05:03:15;20.30;;;17.30;;
39218;SDS011;24934;52.752;6.964;2023-04-21T05:05:41;26.10;;;17.53;;
39218;SDS011;24934;52.752;6.964;2023-04-21T05:08:06;26.33;;;17.40;;
39218;SDS011;24934;52.752;6.964;2023-04-21T05:10:32;24.53;;;17.53;;
39218;SDS011;24934;52.752;6.964;2023-04-21T05:12:58;27.60;;;16.63;;
39218;SDS011;24934;52.752;6.964;2023-04-21T05:15:24;24.37;;;17.93;;
39218;SDS011;24934;52.752;6.964;2023-04-21T05:17:50;23.43;;;17.20;;
39218;SDS011;24934;52.752;6.964;2023-04-21T05:20:16;20.07;;;16.47;;
39218;SDS011;24934;52.752;6.964;2023-04-21T05:22:41;22.27;;;16.10;;
39218;SDS011;24934;52.752;6.964;2023-04-21T05:25:08;21.90;;;16.23;;
39218;SDS011;24934;52.752;6.964;2023-04-21T05:27:35;18.63;;;15.60;;
39218;SDS011;24934;52.752;6.964;2023-04-21T05:30:02;20.97;;;15.77;;
39218;SDS011;24934;52.752;6.964;2023-04-21T05:32:28;21.93;;;15.37;;
39218;SDS011;24934;52.752;6.964;2023-04-21T05:34:53;19.97;;;15.67;;
39218;SDS011;24934;52.752;6.964;2023-04-21T05:37:19;19.93;;;16.10;;
39218;SDS011;24934;52.752;6.964;2023-04-21T05:39:45;23.67;;;16.00;;
39218;SDS011;24934;52.752;6.964;2023-04-21T05:42:10;22.97;;;16.27;;
39218;SDS011;24934;52.752;6.964;2023-04-21T05:44:36;19.47;;;15.73;;
39218;SDS011;24934;52.752;6.964;2023-04-21T05:47:03;20.43;;;15.70;;
39218;SDS011;24934;52.752;6.964;2023-04-21T05:49:29;24.17;;;16.23;;
39218;SDS011;24934;52.752;6.964;2023-04-21T05:51:55;19.37;;;15.90;;
39218;SDS011;24934;52.752;6.964;2023-04-21T05:54:21;23.87;;;15.63;;
39218;SDS011;24934;52.752;6.964;2023-04-21T05:56:47;17.43;;;15.57;;
39218;SDS011;24934;52.752;6.964;2023-04-21T05:59:12;20.00;;;16.10;;
39218;SDS011;24934;52.752;6.964;2023-04-21T06:01:38;23.83;;;16.00;;
39218;SDS011;24934;52.752;6.964;2023-04-21T06:04:04;21.37;;;14.77;;
39218;SDS011;24934;52.752;6.964;2023-04-21T06:06:30;22.57;;;16.80;;
39218;SDS011;24934;52.752;6.964;2023-04-21T06:08:55;21.37;;;15.77;;
39218;SDS011;24934;52.752;6.964;2023-04-21T06:11:21;18.13;;;15.80;;
39218;SDS011;24934;52.752;6.964;2023-04-21T06:13:47;21.57;;;16.80;;
39218;SDS011;24934;52.752;6.964;2023-04-21T06:16:14;21.87;;;15.13;;
39218;SDS011;24934;52.752;6.964;2023-04-21T06:18:39;23.87;;;16.23;;
39218;SDS011;24934;52.752;6.964;2023-04-21T06:21:05;18.57;;;16.00;;
39218;SDS011;24934;52.752;6.964;2023-04-21T06:23:30;17.70;;;15.47;;
39218;SDS011;24934;52.752;6.964;2023-04-21T06:26:03;22.10;;;16.10;;
39218;SDS011;24934;52.752;6.964;2023-04-21T06:28:31;21.77;;;16.40;;
39218;SDS011;24934;52.752;6.964;2023-04-21T06:30:57;19.17;;;15.50;;
39218;SDS011;24934;52.752;6.964;2023-04-21T06:33:24;21.43;;;16.03;;
39218;SDS011;24934;52.752;6.964;2023-04-21T06:35:52;22.43;;;15.07;;
39218;SDS011;24934;52.752;6.964;2023-04-21T06:38:18;22.00;;;15.63;;
39218;SDS011;24934;52.752;6.964;2023-04-21T06:40:44;18.13;;;16.10;;
39218;SDS011;24934;52.752;6.964;2023-04-21T06:43:09;20.47;;;15.57;;
39218;SDS011;24934;52.752;6.964;2023-04-21T06:45:35;23.17;;;16.03;;
39218;SDS011;24934;52.752;6.964;2023-04-21T06:48:01;20.77;;;16.47;;
39218;SDS011;24934;52.752;6.964;2023-04-21T06:50:27;22.80;;;16.83;;
39218;SDS011;24934;52.752;6.964;2023-04-21T06:52:52;23.33;;;16.23;;
39218;SDS011;24934;52.752;6.964;2023-04-21T06:55:18;21.15;;;16.23;;
39218;SDS011;24934;52.752;6.964;2023-04-21T06:57:43;18.77;;;16.70;;
39218;SDS011;24934;52.752;6.964;2023-04-21T07:00:09;21.33;;;16.13;;
39218;SDS011;24934;52.752;6.964;2023-04-21T07:02:36;22.33;;;15.90;;
39218;SDS011;24934;52.752;6.964;2023-04-21T07:05:02;21.50;;;16.40;;
39218;SDS011;24934;52.752;6.964;2023-04-21T07:07:27;24.60;;;15.87;;
39218;SDS011;24934;52.752;6.964;2023-04-21T07:09:53;19.90;;;16.37;;
39218;SDS011;24934;52.752;6.964;2023-04-21T07:12:22;28.08;;;16.75;;
39218;SDS011;24934;52.752;6.964;2023-04-21T07:14:47;23.08;;;17.27;;
39218;SDS011;24934;52.752;6.964;2023-04-21T07:17:13;22.90;;;16.27;;
39218;SDS011;24934;52.752;6.964;2023-04-21T07:19:39;20.38;;;17.40;;
39218;SDS011;24934;52.752;6.964;2023-04-21T07:22:04;22.58;;;17.70;;
39218;SDS011;24934;52.752;6.964;2023-04-21T07:24:30;27.70;;;17.38;;
39218;SDS011;24934;52.752;6.964;2023-04-21T07:26:58;20.13;;;17.25;;
39218;SDS011;24934;52.752;6.964;2023-04-21T07:29:24;23.42;;;17.27;;
39218;SDS011;24934;52.752;6.964;2023-04-21T07:31:50;19.67;;;16.65;;
39218;SDS011;24934;52.752;6.964;2023-04-21T07:34:16;26.10;;;17.05;;
39218;SDS011;24934;52.752;6.964;2023-04-21T07:36:41;22.40;;;17.42;;
39218;SDS011;24934;52.752;6.964;2023-04-21T07:39:07;20.73;;;16.40;;
39218;SDS011;24934;52.752;6.964;2023-04-21T07:41:33;20.10;;;16.50;;
39218;SDS011;24934;52.752;6.964;2023-04-21T07:43:58;23.10;;;15.80;;
39218;SDS011;24934;52.752;6.964;2023-04-21T07:46:24;23.27;;;15.38;;
39218;SDS011;24934;52.752;6.964;2023-04-21T07:48:54;24.98;;;14.95;;
39218;SDS011;24934;52.752;6.964;2023-04-21T07:51:21;19.70;;;15.05;;
39218;SDS011;24934;52.752;6.964;2023-04-21T07:53:48;21.92;;;16.30;;
39218;SDS011;24934;52.752;6.964;2023-04-21T07:56:18;21.27;;;15.65;;
39218;SDS011;24934;52.752;6.964;2023-04-21T07:58:44;26.20;;;15.93;;
39218;SDS011;24934;52.752;6.964;2023-04-21T08:01:10;20.48;;;13.50;;
39218;SDS011;24934;52.752;6.964;2023-04-21T08:03:36;21.45;;;14.45;;
39218;SDS011;24934;52.752;6.964;2023-04-21T08:06:01;18.42;;;14.82;;
39218;SDS011;24934;52.752;6.964;2023-04-21T08:08:27;22.13;;;14.90;;
39218;SDS011;24934;52.752;6.964;2023-04-21T08:10:53;22.80;;;13.68;;
39218;SDS011;24934;52.752;6.964;2023-04-21T08:13:18;18.58;;;13.80;;
39218;SDS011;24934;52.752;6.964;2023-04-21T08:15:49;24.02;;;15.50;;
39218;SDS011;24934;52.752;6.964;2023-04-21T08:18:15;22.58;;;15.02;;
39218;SDS011;24934;52.752;6.964;2023-04-21T08:20:42;19.77;;;15.05;;
39218;SDS011;24934;52.752;6.964;2023-04-21T08:23:08;19.13;;;14.18;;
39218;SDS011;24934;52.752;6.964;2023-04-21T08:25:42;23.48;;;14.40;;
39218;SDS011;24934;52.752;6.964;2023-04-21T08:28:10;22.55;;;14.35;;
39218;SDS011;24934;52.752;6.964;2023-04-21T08:30:35;21.17;;;14.68;;
39218;SDS011;24934;52.752;6.964;2023-04-21T08:33:01;22.83;;;14.88;;
39218;SDS011;24934;52.752;6.964;2023-04-21T08:35:27;17.23;;;15.38;;
39218;SDS011;24934;52.752;6.964;2023-04-21T08:37:52;22.38;;;15.27;;
39218;SDS011;24934;52.752;6.964;2023-04-21T08:40:23;22.27;;;16.17;;
39218;SDS011;24934;52.752;6.964;2023-04-21T08:42:57;22.65;;;15.77;;
39218;SDS011;24934;52.752;6.964;2023-04-21T08:45:23;19.77;;;14.80;;
39218;SDS011;24934;52.752;6.964;2023-04-21T08:47:49;19.10;;;15.43;;
39218;SDS011;24934;52.752;6.964;2023-04-21T08:50:15;18.73;;;15.27;;
39218;SDS011;24934;52.752;6.964;2023-04-21T08:52:41;20.58;;;16.67;;
39218;SDS011;24934;52.752;6.964;2023-04-21T08:55:06;20.75;;;15.98;;
39218;SDS011;24934;52.752;6.964;2023-04-21T08:57:34;18.98;;;16.85;;
39218;SDS011;24934;52.752;6.964;2023-04-21T08:59:59;19.75;;;16.38;;
39218;SDS011;24934;52.752;6.964;2023-04-21T09:02:25;22.45;;;15.98;;
39218;SDS011;24934;52.752;6.964;2023-04-21T09:04:51;18.00;;;14.25;;
39218;SDS011;24934;52.752;6.964;2023-04-21T09:09:56;20.95;;;14.65;;
39218;SDS011;24934;52.752;6.964;2023-04-21T09:12:24;21.10;;;14.25;;
39218;SDS011;24934;52.752;6.964;2023-04-21T09:14:50;22.35;;;15.52;;
39218;SDS011;24934;52.752;6.964;2023-04-21T09:17:16;20.23;;;14.65;;
39218;SDS011;24934;52.752;6.964;2023-04-21T09:19:42;18.05;;;15.65;;
39218;SDS011;24934;52.752;6.964;2023-04-21T09:22:08;18.27;;;16.08;;
39218;SDS011;24934;52.752;6.964;2023-04-21T09:24:45;26.65;;;17.85;;
39218;SDS011;24934;52.752;6.964;2023-04-21T09:27:13;19.42;;;16.67;;
39218;SDS011;24934;52.752;6.964;2023-04-21T09:29:44;22.88;;;17.75;;
39218;SDS011;24934;52.752;6.964;2023-04-21T09:32:15;20.60;;;17.05;;
39218;SDS011;24934;52.752;6.964;2023-04-21T09:34:44;17.65;;;15.85;;
39218;SDS011;24934;52.752;6.964;2023-04-21T09:37:11;17.65;;;15.63;;
39218;SDS011;24934;52.752;6.964;2023-04-21T09:39:38;21.05;;;16.77;;
39218;SDS011;24934;52.752;6.964;2023-04-21T09:42:05;24.63;;;17.10;;
39218;SDS011;24934;52.752;6.964;2023-04-21T09:44:34;20.23;;;17.08;;
39218;SDS011;24934;52.752;6.964;2023-04-21T09:47:02;20.27;;;15.93;;
39218;SDS011;24934;52.752;6.964;2023-04-21T09:49:34;23.60;;;16.75;;
39218;SDS011;24934;52.752;6.964;2023-04-21T09:52:01;18.60;;;16.75;;
39218;SDS011;24934;52.752;6.964;2023-04-21T09:54:30;21.80;;;15.82;;
39218;SDS011;24934;52.752;6.964;2023-04-21T09:56:58;18.85;;;15.77;;
39218;SDS011;24934;52.752;6.964;2023-04-21T09:59:34;21.60;;;16.52;;
39218;SDS011;24934;52.752;6.964;2023-04-21T10:02:03;24.75;;;16.13;;
39218;SDS011;24934;52.752;6.964;2023-04-21T10:04:30;21.15;;;15.88;;
39218;SDS011;24934;52.752;6.964;2023-04-21T10:06:57;19.08;;;16.02;;
39218;SDS011;24934;52.752;6.964;2023-04-21T10:09:26;21.38;;;16.92;;
39218;SDS011;24934;52.752;6.964;2023-04-21T10:11:57;23.52;;;15.82;;
39218;SDS011;24934;52.752;6.964;2023-04-21T10:14:26;23.33;;;17.23;;
39218;SDS011;24934;52.752;6.964;2023-04-21T10:17:05;23.13;;;17.55;;
39218;SDS011;24934;52.752;6.964;2023-04-21T10:19:33;19.38;;;17.27;;
39218;SDS011;24934;52.752;6.964;2023-04-21T10:22:05;19.75;;;17.27;;
39218;SDS011;24934;52.752;6.964;2023-04-21T10:24:35;21.33;;;17.48;;
39218;SDS011;24934;52.752;6.964;2023-04-21T10:27:02;19.75;;;16.90;;
39218;SDS011;24934;52.752;6.964;2023-04-21T10:29:30;19.05;;;17.10;;
39218;SDS011;24934;52.752;6.964;2023-04-21T10:31:58;21.67;;;17.35;;
39218;SDS011;24934;52.752;6.964;2023-04-21T10:34:39;20.02;;;17.73;;
39218;SDS011;24934;52.752;6.964;2023-04-21T10:39:34;20.98;;;14.77;;
39218;SDS011;24934;52.752;6.964;2023-04-21T10:42:21;22.35;;;18.13;;
39218;SDS011;24934;52.752;6.964;2023-04-21T10:47:34;18.25;;;15.25;;
39218;SDS011;24934;52.752;6.964;2023-04-21T10:50:12;21.00;;;15.60;;
39218;SDS011;24934;52.752;6.964;2023-04-21T10:52:39;22.42;;;15.85;;
39218;SDS011;24934;52.752;6.964;2023-04-21T10:55:08;20.23;;;15.30;;
39218;SDS011;24934;52.752;6.964;2023-04-21T10:57:36;21.98;;;16.58;;
39218;SDS011;24934;52.752;6.964;2023-04-21T11:00:04;17.73;;;15.80;;
39218;SDS011;24934;52.752;6.964;2023-04-21T11:02:31;23.08;;;15.48;;
39218;SDS011;24934;52.752;6.964;2023-04-21T11:04:58;16.83;;;14.85;;
39218;SDS011;24934;52.752;6.964;2023-04-21T11:07:25;19.30;;;12.15;;
39218;SDS011;24934;52.752;6.964;2023-04-21T11:09:57;16.17;;;13.77;;
39218;SDS011;24934;52.752;6.964;2023-04-21T11:12:35;16.27;;;13.07;;
39218;SDS011;24934;52.752;6.964;2023-04-21T11:15:04;17.90;;;13.02;;
39218;SDS011;24934;52.752;6.964;2023-04-21T11:17:36;15.07;;;12.55;;
39218;SDS011;24934;52.752;6.964;2023-04-21T11:20:07;20.05;;;13.50;;
39218;SDS011;24934;52.752;6.964;2023-04-21T11:22:34;20.08;;;13.98;;
39218;SDS011;24934;52.752;6.964;2023-04-21T11:25:01;23.17;;;13.82;;
39218;SDS011;24934;52.752;6.964;2023-04-21T11:27:27;14.15;;;12.73;;
39218;SDS011;24934;52.752;6.964;2023-04-21T11:29:54;18.65;;;13.35;;
39218;SDS011;24934;52.752;6.964;2023-04-21T11:32:19;15.45;;;13.10;;
39218;SDS011;24934;52.752;6.964;2023-04-21T11:34:45;14.15;;;12.75;;
39218;SDS011;24934;52.752;6.964;2023-04-21T11:37:19;17.42;;;13.45;;
39218;SDS011;24934;52.752;6.964;2023-04-21T11:39:47;15.05;;;13.02;;
39218;SDS011;24934;52.752;6.964;2023-04-21T11:42:19;18.98;;;12.07;;
39218;SDS011;24934;52.752;6.964;2023-04-21T11:44:46;13.55;;;11.43;;
39218;SDS011;24934;52.752;6.964;2023-04-21T11:47:16;15.25;;;12.60;;
39218;SDS011;24934;52.752;6.964;2023-04-21T11:52:11;12.45;;;11.13;;
39218;SDS011;24934;52.752;6.964;2023-04-21T11:55:01;12.40;;;10.90;;
39218;SDS011;24934;52.752;6.964;2023-04-21T11:57:31;11.57;;;10.38;;
39218;SDS011;24934;52.752;6.964;2023-04-21T11:59:58;14.35;;;10.63;;
39218;SDS011;24934;52.752;6.964;2023-04-21T12:02:26;17.42;;;10.57;;
39218;SDS011;24934;52.752;6.964;2023-04-21T12:07:24;19.45;;;11.75;;
39218;SDS011;24934;52.752;6.964;2023-04-21T12:09:50;16.55;;;10.88;;
39218;SDS011;24934;52.752;6.964;2023-04-21T12:12:16;14.45;;;11.90;;
39218;SDS011;24934;52.752;6.964;2023-04-21T12:14:43;14.05;;;10.55;;
39218;SDS011;24934;52.752;6.964;2023-04-21T12:17:09;17.50;;;11.45;;
39218;SDS011;24934;52.752;6.964;2023-04-21T12:19:38;18.60;;;11.98;;
39218;SDS011;24934;52.752;6.964;2023-04-21T12:22:06;12.50;;;11.20;;
39218;SDS011;24934;52.752;6.964;2023-04-21T12:24:33;15.98;;;11.52;;
39218;SDS011;24934;52.752;6.964;2023-04-21T12:26:58;11.55;;;10.35;;
39218;SDS011;24934;52.752;6.964;2023-04-21T12:29:25;16.80;;;12.25;;
39218;SDS011;24934;52.752;6.964;2023-04-21T12:31:51;16.17;;;12.88;;
39218;SDS011;24934;52.752;6.964;2023-04-21T12:34:17;17.27;;;12.07;;
39218;SDS011;24934;52.752;6.964;2023-04-21T12:36:42;13.85;;;11.75;;
39218;SDS011;24934;52.752;6.964;2023-04-21T12:39:08;11.85;;;10.15;;
39218;SDS011;24934;52.752;6.964;2023-04-21T12:41:34;14.32;;;10.48;;
39218;SDS011;24934;52.752;6.964;2023-04-21T12:43:59;15.07;;;11.00;;
39218;SDS011;24934;52.752;6.964;2023-04-21T12:46:25;15.75;;;11.57;;
39218;SDS011;24934;52.752;6.964;2023-04-21T12:48:52;15.90;;;10.23;;
39218;SDS011;24934;52.752;6.964;2023-04-21T12:51:17;16.95;;;10.75;;
39218;SDS011;24934;52.752;6.964;2023-04-21T12:53:43;13.27;;;9.23;;
39218;SDS011;24934;52.752;6.964;2023-04-21T12:56:09;10.40;;;9.30;;
39218;SDS011;24934;52.752;6.964;2023-04-21T12:58:35;13.73;;;9.35;;
39218;SDS011;24934;52.752;6.964;2023-04-21T13:01:01;12.77;;;9.85;;
39218;SDS011;24934;52.752;6.964;2023-04-21T13:03:26;12.32;;;9.52;;
39218;SDS011;24934;52.752;6.964;2023-04-21T13:05:52;10.90;;;9.40;;
39218;SDS011;24934;52.752;6.964;2023-04-21T13:08:21;18.48;;;10.63;;
39218;SDS011;24934;52.752;6.964;2023-04-21T13:10:47;12.27;;;10.55;;
39218;SDS011;24934;52.752;6.964;2023-04-21T13:13:17;13.18;;;10.27;;
39218;SDS011;24934;52.752;6.964;2023-04-21T13:15:48;16.15;;;12.43;;
39218;SDS011;24934;52.752;6.964;2023-04-21T13:18:14;13.65;;;10.63;;
39218;SDS011;24934;52.752;6.964;2023-04-21T13:20:39;11.43;;;9.77;;
39218;SDS011;24934;52.752;6.964;2023-04-21T13:23:07;14.63;;;9.70;;
39218;SDS011;24934;52.752;6.964;2023-04-21T13:25:32;13.80;;;9.38;;
39218;SDS011;24934;52.752;6.964;2023-04-21T13:27:58;11.40;;;10.30;;
39218;SDS011;24934;52.752;6.964;2023-04-21T13:30:25;15.13;;;9.32;;
39218;SDS011;24934;52.752;6.964;2023-04-21T13:32:50;15.88;;;10.70;;
39218;SDS011;24934;52.752;6.964;2023-04-21T13:35:16;12.65;;;8.90;;
39218;SDS011;24934;52.752;6.964;2023-04-21T13:37:42;11.05;;;9.23;;
39218;SDS011;24934;52.752;6.964;2023-04-21T13:40:11;9.90;;;8.73;;
39218;SDS011;24934;52.752;6.964;2023-04-21T13:42:37;10.68;;;9.35;;
39218;SDS011;24934;52.752;6.964;2023-04-21T13:45:03;11.93;;;8.55;;
39218;SDS011;24934;52.752;6.964;2023-04-21T13:47:31;10.77;;;8.68;;
39218;SDS011;24934;52.752;6.964;2023-04-21T13:49:57;12.93;;;9.88;;
39218;SDS011;24934;52.752;6.964;2023-04-21T13:52:23;11.52;;;10.43;;
39218;SDS011;24934;52.752;6.964;2023-04-21T13:54:49;13.23;;;10.30;;
39218;SDS011;24934;52.752;6.964;2023-04-21T13:57:16;13.55;;;10.00;;
39218;SDS011;24934;52.752;6.964;2023-04-21T13:59:42;9.68;;;8.77;;
39218;SDS011;24934;52.752;6.964;2023-04-21T14:02:07;10.82;;;9.63;;
39218;SDS011;24934;52.752;6.964;2023-04-21T14:04:33;13.32;;;8.82;;
39218;SDS011;24934;52.752;6.964;2023-04-21T14:07:00;8.38;;;7.38;;
39218;SDS011;24934;52.752;6.964;2023-04-21T14:09:26;11.70;;;8.50;;
39218;SDS011;24934;52.752;6.964;2023-04-21T14:11:52;18.70;;;11.35;;
39218;SDS011;24934;52.752;6.964;2023-04-21T14:14:18;8.50;;;7.32;;
39218;SDS011;24934;52.752;6.964;2023-04-21T14:16:45;14.07;;;10.85;;
39218;SDS011;24934;52.752;6.964;2023-04-21T14:19:13;21.30;;;15.23;;
39218;SDS011;24934;52.752;6.964;2023-04-21T14:21:39;11.50;;;8.82;;
39218;SDS011;24934;52.752;6.964;2023-04-21T14:24:05;11.38;;;9.10;;
39218;SDS011;24934;52.752;6.964;2023-04-21T14:26:31;9.95;;;8.90;;
39218;SDS011;24934;52.752;6.964;2023-04-21T14:28:57;10.80;;;9.18;;
39218;SDS011;24934;52.752;6.964;2023-04-21T14:31:24;13.27;;;9.60;;
39218;SDS011;24934;52.752;6.964;2023-04-21T14:33:50;12.27;;;9.85;;